Time;durP1;ratioP1;P1;durP2;ratioP2;P2;SDS_P1;SDS_P2;PMS_P1;PMS_P2;Temp;Humidity;BMP_temperature;BMP_pressure;BME280_temperature;BME280_humidity;BME280_pressure;Samples;Min_cycle;Max_cycle;Signal;HPM_P1;HPM_P2
2022/06/12 00:01:38;;;;;;;8.90;7.63;;;18.30;99.90;;;18.42;66.89;101555.66;5047594;28;20439;-73
2022/06/12 00:04:07;;;;;;;8.60;7.70;;;18.30;99.90;;;18.37;67.15;101558.28;5038554;28;20444;-73
2022/06/12 00:06:36;;;;;;;6.90;6.10;;;18.30;99.90;;;18.32;67.51;101560.91;5044312;28;20457;-71
2022/06/12 00:09:05;;;;;;;17.40;13.13;;;18.30;99.90;;;18.21;67.86;101564.47;5041093;28;20903;-72
2022/06/12 00:11:34;;;;;;;9.33;6.47;;;18.20;99.90;;;18.18;67.84;101554.81;5034383;28;20443;-70
2022/06/12 00:14:08;;;;;;;10.00;9.00;;;18.10;99.90;;;18.16;68.28;101558.84;5037571;28;20935;-70
2022/06/12 00:16:40;;;;;;;10.27;8.13;;;18.10;99.90;;;18.05;68.58;101565.16;5042561;28;20447;-73
2022/06/12 00:19:11;;;;;;;8.37;7.37;;;18.00;99.90;;;18.05;68.74;101566.00;5045423;28;20892;-70
2022/06/12 00:21:40;;;;;;;7.93;7.13;;;18.00;99.90;;;18.05;68.78;101560.53;5028585;28;20407;-73
2022/06/12 00:24:13;;;;;;;7.60;6.90;;;18.00;99.90;;;17.98;69.02;101561.69;5040087;28;20805;-70
2022/06/12 00:26:47;;;;;;;9.33;8.40;;;17.90;99.90;;;17.90;69.34;101557.41;5047260;28;20465;-71
2022/06/12 00:29:21;;;;;;;6.90;6.30;;;17.80;99.90;;;17.87;69.48;101557.00;5039786;28;20410;-73
2022/06/12 00:31:56;;;;;;;10.00;8.13;;;17.80;99.90;;;17.76;69.71;101562.25;5032349;28;20418;-70
2022/06/12 00:34:30;;;;;;;10.60;8.47;;;17.70;99.90;;;17.66;70.36;101555.66;5045446;28;20456;-70
2022/06/12 00:37:00;;;;;;;11.20;9.63;;;17.60;99.90;;;17.79;70.42;101556.28;5042947;28;20851;-71
2022/06/12 00:39:32;;;;;;;9.50;8.60;;;17.70;99.90;;;17.91;69.90;101556.28;5041832;28;20454;-70
2022/06/12 00:42:04;;;;;;;9.60;8.70;;;17.70;99.90;;;17.91;69.79;101558.22;5038377;28;20481;-70
2022/06/12 00:44:39;;;;;;;11.47;9.70;;;17.70;99.90;;;17.84;70.10;101547.38;5041915;22;20484;-74
2022/06/12 00:47:12;;;;;;;9.70;8.70;;;17.80;99.90;;;17.78;70.26;101551.03;5038486;28;20434;-74
2022/06/12 00:49:45;;;;;;;8.37;7.57;;;17.70;99.90;;;17.72;70.73;101544.59;5046998;28;20873;-74
2022/06/12 00:52:21;;;;;;;11.90;8.80;;;17.60;99.90;;;17.75;70.66;101549.63;5016366;28;20906;-72
2022/06/12 00:54:54;;;;;;;12.20;8.53;;;17.60;99.90;;;17.64;70.67;101547.66;5019494;28;20994;-73
2022/06/12 00:57:26;;;;;;;11.70;10.23;;;17.60;99.90;;;17.61;70.91;101544.56;5020886;28;20842;-73
2022/06/12 01:00:10;;;;;;;10.00;8.20;;;17.50;99.90;;;17.56;70.91;101536.19;5032140;28;20479;-73
2022/06/12 01:02:39;;;;;;;10.67;9.57;;;17.50;99.90;;;17.49;71.33;101552.69;5027249;28;20439;-73
2022/06/12 01:08:09;;;;;;;9.50;8.53;;;17.40;99.90;;;17.39;71.66;101549.66;5027507;28;20442;-74
2022/06/12 01:10:45;;;;;;;13.43;7.90;;;17.30;99.90;;;17.29;71.63;101549.38;5024437;28;20456;-74
2022/06/12 01:13:20;;;;;;;12.07;8.10;;;17.30;99.90;;;17.19;72.30;101549.09;5024940;28;20444;-74
2022/06/12 01:15:54;;;;;;;9.30;8.10;;;17.20;99.90;;;17.09;72.62;101543.34;5009664;28;20447;-74
2022/06/12 01:18:29;;;;;;;10.13;8.10;;;17.10;99.90;;;17.03;73.19;101536.06;5021252;28;20485;-74
2022/06/12 01:21:26;;;;;;;7.73;6.93;;;17.00;99.90;;;16.99;73.51;101543.06;5014574;28;20491;-74
2022/06/12 01:24:25;;;;;;;11.60;8.10;;;17.00;99.90;;;16.92;73.52;101551.31;5024046;28;20550;-73
2022/06/12 01:27:52;;;;;;;10.17;7.30;;;16.90;99.90;;;16.83;73.96;101542.59;5019311;28;20487;-73
2022/06/12 01:30:32;;;;;;;10.33;9.33;;;16.90;99.90;;;16.86;74.32;101533.09;4992123;28;21018;-72
2022/06/12 01:33:13;;;;;;;11.07;9.97;;;16.80;99.90;;;17.03;73.89;101533.31;5030368;28;20470;-73
2022/06/12 01:35:53;;;;;;;13.13;8.87;;;16.90;99.90;;;17.03;73.43;101538.81;5030473;28;20546;-74
2022/06/12 01:38:38;;;;;;;10.47;9.33;;;16.90;99.90;;;17.03;73.55;101539.63;5032992;28;21035;-72
2022/06/12 01:41:22;;;;;;;10.50;9.40;;;16.90;99.90;;;17.02;73.47;101537.13;5033719;28;20468;-73
2022/06/12 01:44:07;;;;;;;11.33;9.47;;;16.90;99.90;;;17.01;73.47;101532.72;5030828;28;20454;-74
2022/06/12 01:46:48;;;;;;;9.70;8.80;;;16.90;99.90;;;16.94;73.66;101524.59;5022757;28;20452;-73
2022/06/12 01:49:29;;;;;;;10.77;9.67;;;16.90;99.90;;;16.97;73.92;101524.13;5025804;28;20855;-74
2022/06/12 01:52:07;;;;;;;10.80;9.40;;;16.90;99.90;;;17.01;73.17;101530.81;5028463;28;20874;-74
2022/06/12 01:54:48;;;;;;;9.40;8.50;;;16.90;99.90;;;16.85;73.72;101529.53;5015203;28;20921;-73
2022/06/12 01:57:37;;;;;;;9.73;8.80;;;16.80;99.90;;;16.87;73.47;101530.16;5012681;28;20465;-73
2022/06/12 02:00:10;;;;;;;10.83;8.87;;;16.80;99.90;;;16.82;73.66;101521.78;5020131;28;20472;-73
2022/06/12 02:02:49;;;;;;;11.67;8.17;;;16.80;99.90;;;16.76;73.92;101519.97;5027702;28;20440;-73
2022/06/12 02:05:24;;;;;;;8.97;8.07;;;16.70;99.90;;;16.80;73.79;101529.38;5028679;28;20489;-74
2022/06/12 02:08:00;;;;;;;10.63;9.50;;;16.70;99.90;;;16.71;74.17;101525.28;5012407;28;20463;-74
2022/06/12 02:10:36;;;;;;;8.97;8.07;;;16.70;99.90;;;16.63;74.32;101522.84;5027661;28;20488;-74
2022/06/12 02:13:12;;;;;;;11.93;9.80;;;16.60;99.90;;;16.58;74.56;101522.69;5020072;28;20684;-74
2022/06/12 02:15:53;;;;;;;10.93;9.83;;;16.50;99.90;;;16.59;74.33;101527.09;5026340;28;20463;-74
2022/06/12 02:18:31;;;;;;;11.77;10.57;;;16.50;99.90;;;16.65;74.14;101528.09;5033404;28;20510;-74
2022/06/12 02:21:09;;;;;;;10.87;9.83;;;16.50;99.90;;;16.68;73.92;101523.00;5034733;28;20452;-74
2022/06/12 02:23:45;;;;;;;9.90;8.93;;;16.60;99.90;;;16.69;74.04;101521.94;5024590;28;20532;-75
2022/06/12 02:26:20;;;;;;;14.73;9.27;;;16.60;99.90;;;16.68;73.97;101520.28;5025939;28;20494;-74
2022/06/12 02:28:55;;;;;;;11.07;10.00;;;16.60;99.90;;;16.62;74.35;101506.69;5028049;28;20475;-74
2022/06/12 02:31:30;;;;;;;13.77;9.67;;;16.50;99.90;;;16.53;74.96;101517.03;5025502;28;20521;-74
2022/06/12 02:34:05;;;;;;;13.37;9.37;;;16.50;99.90;;;16.52;74.79;101504.44;5018227;28;20455;-74
2022/06/12 02:36:40;;;;;;;10.33;9.17;;;16.50;99.90;;;16.49;75.15;101516.66;5027438;28;20472;-74
2022/06/12 02:39:16;;;;;;;10.63;9.47;;;16.40;99.90;;;16.55;75.27;101504.00;5019894;28;20439;-73
2022/06/12 02:41:55;;;;;;;12.00;10.87;;;16.40;99.90;;;16.73;74.40;101501.28;5029760;28;20452;-75
2022/06/12 02:44:33;;;;;;;9.17;8.20;;;16.50;99.90;;;16.86;74.06;101503.03;5026532;28;20447;-75
2022/06/12 02:47:10;;;;;;;11.50;9.40;;;16.60;99.90;;;16.75;74.53;101503.81;5026187;28;20452;-73
2022/06/12 02:49:43;;;;;;;11.57;10.40;;;16.60;99.90;;;16.72;74.86;101504.25;5020552;28;20463;-74
2022/06/12 02:52:22;;;;;;;10.17;9.10;;;16.60;99.90;;;16.81;74.83;101497.41;5024690;28;20452;-73
2022/06/12 02:55:07;;;;;;;10.70;8.20;;;16.60;99.90;;;17.00;73.98;101490.03;5015524;28;20448;-74
2022/06/12 02:57:49;;;;;;;9.80;8.77;;;16.70;99.90;;;17.23;73.25;101490.16;5023721;28;20429;-74
2022/06/12 03:00:30;;;;;;;8.80;7.97;;;16.90;99.90;;;17.23;73.25;101506.56;5023333;28;20574;-74
2022/06/12 03:03:16;;;;;;;8.43;7.67;;;17.00;99.90;;;17.41;72.71;101506.50;5025073;28;20421;-74
2022/06/12 03:05:52;;;;;;;10.13;8.57;;;17.10;99.90;;;17.38;73.21;101498.75;5022453;28;20463;-75
2022/06/12 03:08:25;;;;;;;10.87;9.40;;;17.10;99.90;;;17.43;73.50;101484.41;5028717;28;20442;-72
2022/06/12 03:10:58;;;;;;;10.57;9.63;;;17.20;99.90;;;17.53;73.15;101488.22;5025423;28;20468;-73
2022/06/12 03:13:31;;;;;;;10.93;8.87;;;17.30;99.90;;;17.44;73.81;101491.50;5024975;28;20544;-74
2022/06/12 03:16:11;;;;;;;14.70;8.90;;;17.30;99.90;;;17.42;74.14;101482.72;5027072;28;20432;-73
2022/06/12 03:18:48;;;;;;;9.70;8.90;;;17.30;99.90;;;17.35;75.13;101485.53;5023898;28;20477;-72
2022/06/12 03:21:38;;;;;;;8.87;7.97;;;17.20;99.90;;;17.38;75.16;101482.34;5024495;28;20566;-74
2022/06/12 03:24:29;;;;;;;11.43;9.30;;;17.20;99.90;;;17.39;75.40;101484.00;5024988;28;20514;-74
2022/06/12 03:27:18;;;;;;;20.20;9.97;;;17.30;99.90;;;17.42;75.51;101480.00;5022109;28;21013;-74
2022/06/12 03:30:04;;;;;;;14.67;9.30;;;17.30;99.90;;;17.44;75.66;101492.34;5024369;28;20446;-74
2022/06/12 03:32:45;;;;;;;10.23;9.27;;;17.30;99.90;;;17.51;75.58;101482.16;5025030;28;20463;-73
2022/06/12 03:35:32;;;;;;;9.53;8.33;;;17.30;99.90;;;17.51;75.73;101487.63;5027243;28;20436;-75
2022/06/12 03:38:13;;;;;;;15.27;10.90;;;17.40;99.90;;;17.45;76.15;101487.72;5019048;28;20483;-74
2022/06/12 03:40:55;;;;;;;10.57;9.43;;;17.30;99.90;;;17.47;76.86;101500.13;5023429;28;20455;-74
2022/06/12 03:43:35;;;;;;;15.63;11.50;;;17.30;99.90;;;17.41;76.65;101514.72;5022567;28;20447;-75
2022/06/12 03:46:24;;;;;;;13.80;9.90;;;17.30;99.90;;;17.05;79.43;101533.91;5025665;28;20487;-74
2022/06/12 03:49:07;;;;;;;12.10;10.80;;;17.00;99.90;;;16.97;79.71;101529.59;5028705;28;20422;-74
2022/06/12 03:51:44;;;;;;;12.53;11.13;;;16.90;99.90;;;16.79;80.48;101535.94;5022048;28;21078;-74
2022/06/12 03:54:25;;;;;;;16.50;11.60;;;16.80;99.90;;;16.87;81.01;101534.78;5023720;28;20455;-74
2022/06/12 03:59:56;;;;;;;14.70;10.43;;;16.70;99.90;;;16.69;81.83;101518.38;5019914;28;20461;-73
2022/06/12 04:02:29;;;;;;;12.00;10.03;;;16.50;99.90;;;16.65;82.20;101526.22;5023314;28;20440;-74
2022/06/12 04:05:01;;;;;;;13.03;11.70;;;16.50;99.90;;;16.63;82.84;101524.75;5026750;28;21042;-75
2022/06/12 04:07:34;;;;;;;12.67;11.47;;;16.50;99.90;;;16.71;82.36;101525.28;5022036;28;20443;-74
2022/06/12 04:10:08;;;;;;;11.93;10.60;;;16.50;99.90;;;16.80;81.85;101523.91;5027512;28;20471;-74
2022/06/12 04:12:37;;;;;;;11.13;9.90;;;16.60;99.90;;;16.75;82.49;101525.69;5032481;28;20497;-74
2022/06/12 04:15:16;;;;;;;14.70;12.03;;;16.60;99.90;;;16.76;82.56;101522.69;5036777;28;20440;-74
2022/06/12 04:17:45;;;;;;;14.53;11.07;;;16.60;99.90;;;16.84;82.52;101519.69;5030011;28;20463;-73
2022/06/12 04:20:19;;;;;;;13.47;11.60;;;16.60;99.90;;;17.14;81.55;101524.34;5017486;28;20484;-73
2022/06/12 04:22:58;;;;;;;12.40;9.67;;;16.70;99.90;;;17.33;81.32;101526.81;5015433;28;20424;-73
2022/06/12 04:25:38;;;;;;;14.13;12.70;;;16.80;99.90;;;17.64;80.15;101536.72;5016125;28;20528;-73
2022/06/12 04:28:28;;;;;;;14.27;12.87;;;17.00;99.90;;;17.53;78.99;101544.84;5020227;28;20561;-74
2022/06/12 04:30:58;;;;;;;14.40;12.90;;;17.20;99.90;;;18.31;77.39;101547.44;5015979;28;20812;-74
2022/06/12 04:33:51;;;;;;;13.47;10.90;;;17.40;99.90;;;19.32;71.20;101563.41;5032040;28;20462;-73
2022/06/12 04:36:20;;;;;;;14.07;11.33;;;18.00;99.90;;;18.77;73.60;101565.81;5026122;28;20438;-75
2022/06/12 04:38:49;;;;;;;13.40;11.47;;;18.10;99.90;;;18.33;75.91;101570.78;5027079;28;20418;-75
2022/06/12 04:41:25;;;;;;;12.63;11.13;;;17.90;99.90;;;18.13;77.78;101570.28;5030039;28;20563;-74
2022/06/12 04:43:54;;;;;;;12.53;11.10;;;17.70;99.90;;;17.85;78.95;101560.00;5024195;28;20537;-74
2022/06/12 04:46:25;;;;;;;13.43;11.90;;;17.50;99.90;;;17.86;79.59;101560.84;5026097;28;20435;-74
2022/06/12 04:48:57;;;;;;;13.60;11.67;;;17.50;1.00;;;18.12;79.31;101571.34;5025153;28;20494;-73
2022/06/12 04:51:28;;;;;;;12.53;11.43;;;17.70;99.90;;;17.91;79.86;101574.66;5031490;28;20562;-75
2022/06/12 04:53:57;;;;;;;12.87;10.93;;;17.70;99.90;;;17.81;80.55;101561.53;5017370;28;20884;-73
2022/06/12 04:56:31;;;;;;;13.57;12.20;;;17.60;99.90;;;17.81;80.25;101556.88;5015460;28;20562;-74
2022/06/12 04:59:00;;;;;;;14.60;12.47;;;17.60;1.00;;;17.85;80.37;101570.13;5030519;28;20453;-74
2022/06/12 05:01:29;;;;;;;13.10;11.97;;;17.70;1.00;;;17.81;80.33;101570.56;5026573;28;20469;-74
2022/06/12 05:03:58;;;;;;;16.63;13.27;;;17.60;1.00;;;17.80;80.98;101559.88;5028414;28;20444;-74
2022/06/12 05:06:28;;;;;;;15.00;11.90;;;17.60;99.90;;;17.79;80.94;101561.75;5019401;28;20914;-73
2022/06/12 05:08:57;;;;;;;18.80;12.47;;;17.60;99.90;;;17.77;81.26;101557.56;5025604;28;20468;-73
2022/06/12 05:11:28;;;;;;;14.23;12.73;;;17.60;99.90;;;17.85;81.88;101553.69;5028102;28;20554;-74
2022/06/12 05:13:57;;;;;;;15.53;12.70;;;17.60;99.90;;;18.00;80.45;101545.88;5024932;28;20634;-74
2022/06/12 05:16:34;;;;;;;15.50;14.00;;;17.70;99.90;;;18.00;80.31;101538.47;5026256;28;20444;-73
2022/06/12 05:19:06;;;;;;;13.17;11.77;;;17.80;99.90;;;17.98;81.51;101537.03;5026838;28;20892;-74
2022/06/12 05:21:35;;;;;;;21.63;13.00;;;17.80;99.90;;;17.91;80.62;101541.81;5029787;28;20445;-75
2022/06/12 05:24:05;;;;;;;13.00;11.23;;;17.70;1.00;;;17.94;80.15;101544.06;5025680;28;20981;-74
2022/06/12 05:26:35;;;;;;;19.13;13.70;;;17.70;1.00;;;18.04;79.18;101538.84;5026228;28;20474;-75
2022/06/12 05:29:08;;;;;;;13.10;11.73;;;17.80;99.90;;;18.00;78.81;101541.22;5027691;28;20440;-74
2022/06/12 05:31:37;;;;;;;13.47;12.07;;;17.80;1.00;;;17.96;79.70;101528.25;5019737;28;20496;-74
2022/06/12 05:34:06;;;;;;;13.33;12.07;;;17.80;99.90;;;17.94;79.21;101523.00;5023782;28;20846;-73
2022/06/12 05:36:35;;;;;;;14.93;12.30;;;17.80;1.00;;;17.88;80.14;101520.34;5027104;28;20871;-73
2022/06/12 05:39:04;;;;;;;13.10;12.00;;;17.70;99.90;;;17.94;80.55;101527.63;5030750;28;20457;-73
2022/06/12 05:41:35;;;;;;;16.33;12.83;;;17.70;1.00;;;18.07;79.66;101530.97;5021085;28;20895;-74
2022/06/12 05:44:04;;;;;;;13.73;12.33;;;17.70;1.00;;;18.36;77.67;101534.69;5023018;28;20399;-73
2022/06/12 05:46:34;;;;;;;16.17;12.13;;;17.90;99.90;;;18.50;77.31;101549.81;5022419;28;21172;-73
2022/06/12 05:49:04;;;;;;;16.37;12.17;;;18.10;1.00;;;18.67;77.47;101545.31;4995741;28;20772;-74
2022/06/12 05:51:33;;;;;;;13.33;11.13;;;18.20;1.00;;;18.72;77.13;101547.34;5020844;28;21063;-75
2022/06/12 05:54:07;;;;;;;13.67;12.37;;;18.30;99.90;;;18.70;77.43;101545.91;5012447;28;20447;-74
2022/06/12 05:56:39;;;;;;;13.40;12.10;;;18.30;99.90;;;18.75;77.07;101543.28;5014878;28;20850;-75
2022/06/12 05:59:09;;;;;;;13.20;11.80;;;18.20;99.90;;;18.77;75.91;101533.75;5015609;28;20512;-73
2022/06/12 06:01:41;;;;;;;13.10;11.80;;;18.30;99.90;;;18.92;75.10;101530.50;5014967;28;20872;-74
2022/06/12 06:04:11;;;;;;;12.43;11.07;;;18.50;1.00;;;19.07;74.34;101530.84;5015114;28;20535;-74
2022/06/12 06:06:49;;;;;;;11.53;10.53;;;18.70;99.90;;;19.31;73.39;101526.94;5013893;28;20440;-74
2022/06/12 06:09:19;;;;;;;12.30;11.20;;;18.70;99.90;;;19.37;73.97;101527.84;5011914;28;20433;-73
2022/06/12 06:11:50;;;;;;;10.80;9.83;;;18.80;99.90;;;19.50;73.47;101542.16;5015480;28;20455;-74
2022/06/12 06:14:19;;;;;;;17.40;11.17;;;19.00;99.90;;;19.38;73.98;101526.75;5013507;28;20539;-76
2022/06/12 06:16:48;;;;;;;13.97;12.60;;;19.10;99.90;;;19.28;74.03;101526.56;5013057;28;20441;-73
2022/06/12 06:19:17;;;;;;;11.77;10.50;;;19.00;99.90;;;19.40;73.97;101521.88;5016277;28;20439;-74
2022/06/12 06:21:46;;;;;;;11.83;10.73;;;19.00;99.90;;;19.47;74.10;101531.66;5017237;28;20483;-76
2022/06/12 06:24:15;;;;;;;13.03;11.67;;;19.00;99.90;;;19.58;74.39;101520.84;5027351;28;20519;-75
2022/06/12 06:26:45;;;;;;;12.83;11.53;;;19.10;99.90;;;19.76;73.29;101523.38;5023599;28;20530;-74
2022/06/12 06:29:15;;;;;;;12.13;10.87;;;19.20;99.90;;;19.80;71.68;101530.06;5025792;28;20773;-74
2022/06/12 06:31:44;;;;;;;13.93;12.13;;;19.30;99.90;;;19.93;72.78;101530.56;5022632;28;20975;-75
2022/06/12 06:34:13;;;;;;;17.87;13.70;;;19.50;99.90;;;20.15;72.37;101533.41;5004564;28;20515;-75
2022/06/12 06:36:42;;;;;;;13.23;11.90;;;19.60;99.90;;;20.65;70.45;101543.53;5006995;28;21022;-73
2022/06/12 06:39:11;;;;;;;13.63;11.50;;;19.80;99.90;;;20.58;70.74;101542.88;5015213;28;20981;-74
2022/06/12 06:41:40;;;;;;;13.27;11.90;;;20.00;99.90;;;20.65;68.72;101535.28;5014612;28;20447;-73
2022/06/12 06:46:56;;;;;;;10.83;9.93;;;20.20;81.80;;;20.68;69.66;101530.09;5017424;28;20438;-76
2022/06/12 06:49:25;;;;;;;14.40;11.70;;;20.20;90.90;;;20.78;68.26;101532.16;5025844;28;20449;-76
2022/06/12 06:51:55;;;;;;;10.50;9.47;;;20.30;67.30;;;21.22;66.79;101528.38;5020076;28;20471;-75
2022/06/12 06:54:24;;;;;;;11.53;9.53;;;20.50;35.10;;;21.54;64.77;101530.38;5018265;28;20846;-74
2022/06/12 06:56:53;;;;;;;10.70;9.50;;;20.80;12.80;;;21.85;63.14;101529.56;5021646;28;20502;-75
2022/06/12 06:59:21;;;;;;;10.33;9.27;;;21.00;4.30;;;21.89;61.49;101525.19;5021440;28;20844;-75
2022/06/12 07:01:51;;;;;;;9.37;8.47;;;21.20;1.00;;;21.76;61.68;101535.81;5024410;28;20479;-75
2022/06/12 07:04:21;;;;;;;9.00;7.80;;;21.10;1.00;;;21.74;61.41;101530.56;5030394;28;20436;-73
2022/06/12 07:06:50;;;;;;;10.03;8.90;;;21.10;1.00;;;21.79;61.39;101538.03;5029203;28;20468;-74
2022/06/12 07:09:19;;;;;;;9.77;8.63;;;21.20;1.00;;;21.70;62.89;101532.16;5029444;28;20448;-74
2022/06/12 07:11:48;;;;;;;10.63;9.40;;;21.20;1.00;;;21.80;62.93;101540.53;5029208;28;20427;-77
2022/06/12 07:14:17;;;;;;;10.37;9.30;;;21.10;1.00;;;21.79;63.32;101546.28;5025115;28;20436;-75
2022/06/12 07:16:46;;;;;;;10.07;9.10;;;21.20;1.00;;;21.45;64.91;101535.50;5028373;28;20533;-75
2022/06/12 07:19:14;;;;;;;10.23;9.33;;;20.90;1.00;;;21.31;65.41;101536.16;5023156;28;20436;-75
2022/06/12 07:21:45;;;;;;;10.47;9.47;;;20.70;3.40;;;21.16;64.76;101528.53;5024475;28;20914;-75
2022/06/12 07:24:14;;;;;;;9.60;8.23;;;20.70;1.00;;;21.24;64.04;101517.09;5023789;28;20421;-74
2022/06/12 07:26:46;;;;;;;7.87;7.07;;;20.80;1.00;;;21.35;64.04;101521.63;5028902;28;20448;-75
2022/06/12 07:29:17;;;;;;;8.73;7.83;;;20.90;1.00;;;21.42;63.57;101516.75;5024229;28;20418;-74
2022/06/12 07:31:49;;;;;;;9.87;8.97;;;20.80;1.00;;;21.42;64.18;101515.91;5012653;28;20468;-75
2022/06/12 07:34:18;;;;;;;9.47;8.50;;;20.90;1.00;;;21.46;64.31;101514.31;5023478;28;20441;-76
2022/06/12 07:36:51;;;;;;;11.97;9.37;;;21.00;1.00;;;21.48;62.79;101509.38;5008736;28;20450;-74
2022/06/12 07:39:26;;;;;;;9.60;8.63;;;21.00;1.00;;;21.35;63.77;101509.78;5029725;28;20422;-73
2022/06/12 07:41:55;;;;;;;9.37;8.37;;;20.90;1.00;;;21.44;63.37;101505.47;5022460;28;20567;-75
2022/06/12 07:44:29;;;;;;;8.60;7.80;;;20.90;1.00;;;21.52;62.88;101497.59;5022436;28;20416;-75
2022/06/12 07:47:00;;;;;;;10.90;8.73;;;20.90;1.00;;;21.68;62.76;101498.56;4995429;28;20903;-74
2022/06/12 07:49:32;;;;;;;8.70;7.90;;;20.90;1.00;;;21.80;62.37;101501.13;4980705;28;20421;-75
2022/06/12 07:52:07;;;;;;;8.30;7.60;;;21.00;1.00;;;21.83;61.51;101501.47;4997082;28;20459;-74
2022/06/12 07:54:37;;;;;;;10.03;8.20;;;21.30;1.00;;;21.85;60.53;101493.75;5006083;28;20484;-73
2022/06/12 07:57:09;;;;;;;8.90;8.10;;;21.40;1.00;;;21.88;60.49;101498.72;5008854;28;20470;-75
2022/06/12 07:59:38;;;;;;;13.07;10.53;;;21.50;1.00;;;21.94;59.95;101503.22;5007582;28;20471;-76
2022/06/12 08:02:08;;;;;;;9.53;8.57;;;21.40;1.00;;;21.90;60.34;101498.47;4999629;28;20984;-74
2022/06/12 08:04:38;;;;;;;9.77;7.70;;;21.20;1.00;;;22.00;60.21;101502.19;4996409;28;20484;-73
2022/06/12 08:07:08;;;;;;;10.20;9.30;;;21.30;1.00;;;22.10;59.45;101502.25;4996465;28;20459;-74
2022/06/12 08:09:37;;;;;;;10.23;9.10;;;21.40;1.00;;;22.24;60.07;101507.31;4993914;28;20460;-74
2022/06/12 08:12:07;;;;;;;8.43;7.10;;;21.50;1.00;;;22.30;59.28;101498.81;5007370;28;20447;-74
2022/06/12 08:14:36;;;;;;;8.03;7.33;;;21.50;1.00;;;22.51;58.89;101497.03;4999396;28;20416;-74
2022/06/12 08:17:05;;;;;;;6.13;5.60;;;21.70;1.00;;;22.83;57.04;101508.81;4995003;28;21061;-75
2022/06/12 08:22:23;;;;;;;6.30;4.77;;;22.30;1.00;;;23.59;53.16;101506.31;5006444;28;20468;-75
2022/06/12 08:24:52;;;;;;;8.20;5.70;;;22.50;1.00;;;23.64;52.73;101511.84;5007124;28;20506;-74
2022/06/12 08:27:21;;;;;;;7.47;5.70;;;22.60;1.00;;;23.81;52.13;101506.06;5001291;28;20440;-75
2022/06/12 08:29:50;;;;;;;7.60;5.90;;;22.80;1.00;;;23.87;52.87;101501.38;4998136;28;20446;-76
2022/06/12 08:32:22;;;;;;;5.87;5.30;;;23.00;1.00;;;23.90;52.16;101507.19;5000644;28;20413;-75
2022/06/12 08:34:57;;;;;;;7.43;4.77;;;23.00;1.00;;;24.11;50.52;101499.69;4996997;28;20413;-75
2022/06/12 08:37:34;;;;;;;4.40;3.50;;;23.20;1.00;;;24.25;50.63;101506.38;5000687;28;20526;-75
2022/06/12 08:40:05;;;;;;;6.53;3.30;;;23.30;1.00;;;24.48;48.02;101499.41;4998075;28;20532;-75
2022/06/12 08:42:45;;;;;;;3.90;3.60;;;23.60;1.00;;;24.34;48.60;101504.69;4994706;28;20481;-77
2022/06/12 08:45:19;;;;;;;4.37;3.83;;;23.70;1.00;;;24.59;48.06;101504.59;4998161;28;20486;-75
2022/06/12 08:47:56;;;;;;;4.40;3.80;;;23.80;1.00;;;24.27;48.83;101504.13;5007236;28;20963;-75
2022/06/12 08:50:31;;;;;;;4.30;4.00;;;23.80;1.00;;;24.60;48.20;101497.97;5005837;28;20468;-76
2022/06/12 08:53:13;;;;;;;4.83;4.40;;;24.10;1.00;;;24.84;48.02;101500.94;5002443;28;20469;-74
2022/06/12 08:55:49;;;;;;;5.37;4.87;;;24.30;1.00;;;24.61;47.93;101494.09;5013187;28;20499;-75
2022/06/12 08:58:28;;;;;;;7.10;5.53;;;24.00;1.00;;;24.18;49.14;101495.56;5006594;28;20507;-75
2022/06/12 09:00:58;;;;;;;5.63;3.83;;;23.70;1.00;;;23.87;50.13;101493.88;5007257;28;20556;-74
2022/06/12 09:03:31;;;;;;;6.03;3.80;;;23.70;1.00;;;24.41;49.20;101494.16;4993089;28;20464;-76
2022/06/12 09:06:10;;;;;;;6.00;4.97;;;23.90;1.00;;;25.05;48.23;101496.19;5005384;28;20443;-76
2022/06/12 09:08:49;;;;;;;5.20;4.07;;;24.10;1.00;;;25.46;46.38;101496.78;5006621;28;20952;-75
2022/06/12 09:11:29;;;;;;;4.13;3.73;;;24.50;1.00;;;25.83;46.30;101487.94;4998181;28;20795;-76
2022/06/12 09:14:09;;;;;;;4.93;3.70;;;25.00;1.00;;;25.76;45.79;101493.81;4993618;28;21013;-74
2022/06/12 09:16:55;;;;;;;7.50;3.03;;;25.10;1.00;;;24.85;46.61;101493.47;5002121;28;20526;-75
2022/06/12 09:19:35;;;;;;;4.53;4.13;;;24.70;1.00;;;24.75;46.40;101493.50;5008399;28;20449;-77
2022/06/12 09:22:21;;;;;;;4.30;3.87;;;24.60;1.00;;;24.88;45.95;101487.41;4986589;28;20516;-75
2022/06/12 09:25:02;;;;;;;4.40;4.00;;;24.50;1.00;;;25.23;45.67;101487.22;5007176;28;20507;-76
2022/06/12 09:27:43;;;;;;;6.10;4.90;;;24.60;1.00;;;24.86;46.11;101492.34;4989420;28;20441;-76
2022/06/12 09:30:18;;;;;;;6.60;2.80;;;24.60;1.00;;;24.32;47.23;101487.53;5008134;28;20543;-75
2022/06/12 09:32:58;;;;;;;3.77;3.43;;;24.20;1.00;;;24.77;47.18;101481.06;5004114;28;20448;-76
2022/06/12 09:35:51;;;;;;;4.83;3.07;;;24.30;1.00;;;24.55;46.64;101486.91;5011657;28;20506;-76
2022/06/12 09:38:38;;;;;;;3.63;3.17;;;24.10;1.00;;;24.54;46.98;101485.28;5001505;28;20544;-74
2022/06/12 09:41:18;;;;;;;4.00;3.70;;;24.20;1.00;;;24.41;47.64;101499.69;5003373;28;20518;-75
2022/06/12 09:44:03;;;;;;;4.20;3.60;;;24.10;1.00;;;24.41;48.33;101483.09;5009849;28;20499;-76
2022/06/12 09:46:43;;;;;;;5.97;3.70;;;24.00;1.00;;;24.91;48.52;101486.84;4995672;28;22039;-74
2022/06/12 09:49:40;;;;;;;13.90;6.63;;;24.20;1.00;;;25.12;47.48;101482.88;4988807;28;20478;-75
2022/06/12 09:52:50;;;;;;;6.13;5.00;;;24.40;1.00;;;25.40;46.02;101476.59;4993785;28;20549;-75
2022/06/12 09:55:27;;;;;;;4.10;3.70;;;24.70;1.00;;;25.27;47.14;101474.44;4997864;28;20545;-76
2022/06/12 09:58:08;;;;;;;10.07;3.87;;;24.90;1.00;;;25.04;46.33;101464.06;4993687;28;20471;-76
2022/06/12 10:00:45;;;;;;;5.73;3.77;;;24.50;1.00;;;25.14;45.54;101468.72;4997045;28;20959;-75
2022/06/12 10:03:25;;;;;;;4.40;4.00;;;24.70;1.00;;;25.23;45.34;101467.81;4993023;28;20477;-75
2022/06/12 10:06:01;;;;;;;4.80;3.90;;;24.80;1.00;;;25.29;45.00;101472.22;5006500;28;20419;-76
2022/06/12 10:08:39;;;;;;;4.10;3.70;;;24.80;1.00;;;25.58;45.27;101468.75;4994958;28;20916;-73
2022/06/12 10:11:15;;;;;;;4.27;3.67;;;25.00;1.00;;;26.07;44.62;101460.28;4992875;28;20468;-75
2022/06/12 10:13:55;;;;;;;7.10;3.70;;;25.20;1.00;;;26.12;44.66;101458.28;4994076;28;20433;-77
2022/06/12 10:16:34;;;;;;;5.77;4.00;;;25.50;1.00;;;26.70;43.82;101452.69;5009606;28;20437;-74
2022/06/12 10:19:30;;;;;;;6.50;4.07;;;25.80;1.00;;;25.44;45.25;101458.28;5005465;28;20441;-76
2022/06/12 10:22:09;;;;;;;3.97;3.57;;;25.40;1.00;;;25.38;45.89;101453.88;4993296;28;20517;-74
2022/06/12 10:24:37;;;;;;;4.00;3.00;;;25.00;1.00;;;25.59;45.29;101459.31;4999122;28;20432;-77
2022/06/12 10:27:11;;;;;;;5.43;3.63;;;25.10;1.00;;;25.71;44.44;101451.44;4999045;28;20530;-74
2022/06/12 10:29:50;;;;;;;4.33;3.23;;;25.30;1.00;;;25.94;44.51;101454.31;4998482;28;20551;-74
2022/06/12 10:32:23;;;;;;;2.63;2.43;;;25.30;1.00;;;25.84;43.70;101445.25;5005358;28;20423;-76
2022/06/12 10:34:56;;;;;;;4.53;2.73;;;25.40;1.00;;;25.96;44.10;101454.00;5000010;28;20762;-75
2022/06/12 10:37:28;;;;;;;3.70;2.43;;;25.50;1.00;;;25.39;42.09;101447.22;4987661;28;20458;-76
2022/06/12 10:40:14;;;;;;;7.40;2.67;;;25.10;1.00;;;25.19;41.81;101438.22;5008813;28;20469;-74
2022/06/12 10:42:51;;;;;;;3.50;1.60;;;25.00;1.00;;;25.75;39.88;101436.75;4982638;28;20480;-75
2022/06/12 10:45:33;;;;;;;5.90;2.50;;;25.20;1.00;;;25.41;40.91;101447.78;4996332;28;20439;-76
2022/06/12 10:48:25;;;;;;;3.27;2.50;;;25.20;1.00;;;25.89;39.92;101436.88;5003024;28;20440;-75
2022/06/12 10:50:58;;;;;;;3.40;2.00;;;25.30;1.00;;;26.16;39.87;101436.34;5004134;28;20982;-75
2022/06/12 10:53:30;;;;;;;3.20;2.30;;;25.60;1.00;;;26.27;40.63;101429.59;5005280;28;20779;-76
2022/06/12 10:56:17;;;;;;;8.07;2.30;;;25.80;1.00;;;25.60;39.39;101445.19;5005675;28;20487;-76